Time;durP1;ratioP1;P1;durP2;ratioP2;P2;SDS_P1;SDS_P2;PMS_P1;PMS_P2;Temp;Humidity;BMP_temperature;BMP_pressure;BME280_temperature;BME280_humidity;BME280_pressure;Samples;Min_cycle;Max_cycle;Signal;HPM_P1;HPM_P2
2022/04/08 00:02:26;;;;;;;18.87;5.90;;;;;;;7.37;61.74;99303.30;1728633;83;25793;-61
2022/04/08 00:04:53;;;;;;;20.05;5.45;;;;;;;7.33;61.66;99300.09;1740020;82;25797;-61
2022/04/08 00:07:20;;;;;;;27.15;6.60;;;;;;;7.31;61.82;99295.86;1742398;82;27479;-62
2022/04/08 00:09:47;;;;;;;24.92;5.80;;;;;;;7.28;61.82;99294.84;1742292;82;25735;-62
2022/04/08 00:12:14;;;;;;;20.05;5.47;;;;;;;7.24;61.66;99297.45;1742376;82;26444;-61
2022/04/08 00:14:41;;;;;;;30.43;5.87;;;;;;;7.20;61.66;99296.92;1742603;82;26128;-62
2022/04/08 00:17:08;;;;;;;17.65;5.75;;;;;;;7.14;61.62;99293.02;1742079;81;25702;-61
2022/04/08 00:19:36;;;;;;;19.87;6.10;;;;;;;7.11;61.75;99292.00;1742511;81;27704;-61
2022/04/08 00:22:05;;;;;;;15.88;5.67;;;;;;;7.09;61.68;99298.46;1742726;82;25724;-61
2022/04/08 00:24:33;;;;;;;19.07;6.25;;;;;;;7.03;61.60;99303.44;1742338;82;25828;-61
2022/04/08 00:26:59;;;;;;;20.45;6.53;;;;;;;6.96;61.65;99295.67;1742937;82;26222;-61
2022/04/08 00:29:26;;;;;;;24.35;6.92;;;;;;;6.91;61.71;99298.44;1742733;82;25789;-62
2022/04/08 00:31:57;;;;;;;27.42;6.22;;;;;;;6.87;61.78;99301.91;1742719;81;28261;-62
2022/04/08 00:34:26;;;;;;;31.33;6.55;;;;;;;6.84;61.91;99297.70;1742424;82;25674;-61
2022/04/08 00:36:55;;;;;;;25.85;7.10;;;;;;;6.84;62.02;99290.16;1742740;82;25524;-61
2022/04/08 00:39:23;;;;;;;20.32;5.58;;;;;;;6.84;62.04;99294.17;1742455;82;26765;-61
2022/04/08 00:41:50;;;;;;;28.05;6.17;;;;;;;6.84;62.08;99295.52;1742793;81;25827;-61
2022/04/08 00:44:17;;;;;;;23.65;6.37;;;;;;;6.83;62.16;99293.34;1734807;81;27720;-61
2022/04/08 00:46:44;;;;;;;25.52;7.47;;;;;;;6.84;62.17;99288.83;1728085;83;25517;-61
2022/04/08 00:49:12;;;;;;;30.82;7.10;;;;;;;6.82;62.03;99292.14;1723414;83;25533;-61
2022/04/08 00:51:40;;;;;;;32.50;7.40;;;;;;;6.81;62.32;99286.47;1688480;83;26059;-61
2022/04/08 00:54:07;;;;;;;18.57;6.20;;;;;;;6.78;62.37;99284.91;1689652;84;25853;-62
2022/04/08 00:56:37;;;;;;;29.15;6.58;;;;;;;6.77;62.59;99277.88;1697279;83;27495;-61
2022/04/08 00:59:05;;;;;;;23.57;5.78;;;;;;;6.78;62.76;99277.41;1689435;84;25738;-61
2022/04/08 01:01:32;;;;;;;26.62;6.20;;;;;;;6.79;62.90;99283.09;1689849;83;25735;-62
2022/04/08 01:03:59;;;;;;;21.95;6.83;;;;;;;6.80;62.97;99282.11;1689578;84;26114;-62
2022/04/08 01:06:27;;;;;;;21.20;5.67;;;;;;;6.80;63.08;99285.61;1689965;84;26102;-61
2022/04/08 01:08:55;;;;;;;17.30;5.33;;;;;;;6.83;63.20;99293.34;1689537;84;27472;-62
2022/04/08 01:11:22;;;;;;;20.00;5.95;;;;;;;6.82;63.24;99282.30;1689963;83;25742;-61
2022/04/08 01:13:51;;;;;;;21.15;5.70;;;;;;;6.81;63.31;99283.80;1689442;84;25736;-61
2022/04/08 01:16:19;;;;;;;24.60;6.12;;;;;;;6.80;63.38;99276.77;1689856;84;26886;-62
2022/04/08 01:18:46;;;;;;;21.80;5.40;;;;;;;6.81;63.54;99280.62;1689417;84;25847;-61
2022/04/08 01:21:13;;;;;;;24.20;6.67;;;;;;;6.81;63.49;99273.94;1689623;84;28361;-61
2022/04/08 01:23:39;;;;;;;23.50;6.25;;;;;;;6.81;63.76;99269.09;1689898;84;25509;-61
2022/04/08 01:26:07;;;;;;;22.58;5.58;;;;;;;6.81;63.91;99269.92;1721536;83;25795;-62
2022/04/08 01:28:35;;;;;;;21.90;5.03;;;;;;;6.79;63.59;99271.90;1689638;84;26059;-61
2022/04/08 01:31:02;;;;;;;23.67;6.15;;;;;;;6.80;63.50;99277.59;1689793;84;25815;-61
2022/04/08 01:33:28;;;;;;;26.62;6.40;;;;;;;6.82;63.59;99281.45;1689778;84;28457;-62
2022/04/08 01:35:55;;;;;;;28.98;6.35;;;;;;;6.83;63.58;99285.33;1689273;84;25841;-62
2022/04/08 01:38:22;;;;;;;23.10;5.62;;;;;;;6.85;63.52;99290.03;1689703;84;25777;-62
2022/04/08 01:40:49;;;;;;;28.20;5.70;;;;;;;6.83;63.15;99279.13;1689443;84;26086;-62
2022/04/08 01:43:17;;;;;;;29.05;6.62;;;;;;;6.76;63.18;99281.57;1688130;84;25495;-62
2022/04/08 01:45:44;;;;;;;31.97;8.58;;;;;;;6.70;63.03;99292.83;1672668;85;27510;-62
2022/04/08 01:48:11;;;;;;;26.25;6.10;;;;;;;6.63;63.26;99299.28;1678821;85;25804;-62
2022/04/08 01:50:38;;;;;;;21.75;5.85;;;;;;;6.50;63.02;99299.58;1687347;84;25812;-62
2022/04/08 01:53:06;;;;;;;25.82;6.25;;;;;;;6.44;63.06;99296.17;1690207;84;26157;-62
2022/04/08 01:55:33;;;;;;;21.77;6.65;;;;;;;6.37;62.96;99297.75;1690729;84;25767;-62
2022/04/08 01:58:02;;;;;;;19.60;6.65;;;;;;;6.31;62.85;99302.34;1689594;84;27537;-62
2022/04/08 02:00:31;;;;;;;25.20;6.33;;;;;;;6.26;62.86;99293.43;1688269;85;25828;-62
2022/04/08 02:03:00;;;;;;;26.73;7.55;;;;;;;6.20;62.78;99289.98;1688240;85;25764;-62
2022/04/08 02:05:27;;;;;;;33.35;6.40;;;;;;;6.15;62.82;99277.06;1688212;85;26122;-62
2022/04/08 02:07:54;;;;;;;20.55;5.58;;;;;;;6.09;63.00;99270.50;1688239;85;25756;-62
2022/04/08 02:10:24;;;;;;;31.42;7.10;;;;;;;6.03;63.03;99268.89;1688337;85;27726;-62
2022/04/08 02:12:50;;;;;;;21.50;7.40;;;;;;;5.98;63.31;99279.11;1688522;85;25796;-62
2022/04/08 02:15:23;;;;;;;25.20;7.50;;;;;;;5.91;63.63;99281.03;1688477;85;25680;-62
2022/04/08 02:17:53;;;;;;;22.70;7.17;;;;;;;5.88;63.68;99281.80;1688223;85;26198;-62
2022/04/08 02:20:20;;;;;;;27.65;6.47;;;;;;;5.84;63.90;99285.73;1688305;85;25748;-62
2022/04/08 02:22:47;;;;;;;19.52;7.40;;;;;;;5.80;63.75;99279.84;1688465;85;27423;-63
2022/04/08 02:25:15;;;;;;;21.68;7.10;;;;;;;5.78;63.79;99289.33;1687862;85;25785;-62
2022/04/08 02:27:43;;;;;;;26.15;6.90;;;;;;;5.75;63.81;99296.27;1688148;85;25720;-61
2022/04/08 02:32:46;;;;;;;20.97;6.55;;;;;;;5.59;63.81;99293.34;1688163;84;25981;-63
2022/04/08 02:35:14;;;;;;;22.05;7.67;;;;;;;5.54;64.07;99284.42;1688410;85;27457;-62
2022/04/08 02:37:40;;;;;;;28.90;8.43;;;;;;;5.49;64.07;99286.17;1688120;85;27386;-62
2022/04/08 02:40:10;;;;;;;40.88;8.63;;;;;;;5.49;64.31;99285.34;1688269;85;26423;-62
2022/04/08 02:42:37;;;;;;;26.25;7.08;;;;;;;5.47;64.36;99285.97;1688187;85;27022;-62
2022/04/08 02:45:05;;;;;;;26.87;6.80;;;;;;;5.46;64.60;99290.48;1689409;84;25827;-62
2022/04/08 02:47:32;;;;;;;23.18;6.55;;;;;;;5.42;64.91;99297.56;1689489;84;28163;-62
2022/04/08 02:49:59;;;;;;;20.65;6.55;;;;;;;5.41;65.39;99296.70;1660054;85;25845;-62
2022/04/08 02:52:26;;;;;;;21.27;6.75;;;;;;;5.45;65.62;99295.92;1678590;84;25730;-62
2022/04/08 02:54:53;;;;;;;25.80;7.05;;;;;;;5.50;65.83;99301.70;1720732;82;26088;-62
2022/04/08 02:57:20;;;;;;;21.45;7.28;;;;;;;5.55;65.74;99304.78;1699519;82;25787;-62
2022/04/08 02:59:46;;;;;;;31.12;7.42;;;;;;;5.57;65.59;99298.82;1729763;82;27395;-62
2022/04/08 03:02:13;;;;;;;19.65;6.75;;;;;;;5.58;65.53;99300.52;1729701;82;25695;-62
2022/04/08 03:04:40;;;;;;;23.98;7.42;;;;;;;5.62;65.55;99306.41;1729812;82;25846;-62
2022/04/08 03:07:07;;;;;;;21.27;6.33;;;;;;;5.64;65.41;99302.61;1729669;82;26172;-62
2022/04/08 03:09:36;;;;;;;22.77;6.80;;;;;;;5.62;65.43;99311.73;1729668;82;25771;-61
2022/04/08 03:12:07;;;;;;;23.57;5.17;;;;;;;5.63;65.25;99312.92;1729748;82;27629;-63
2022/04/08 03:14:34;;;;;;;21.12;5.47;;;;;;;5.62;65.46;99315.23;1729831;82;25804;-63
2022/04/08 03:17:01;;;;;;;24.60;6.78;;;;;;;5.60;65.54;99320.37;1729676;82;25742;-63
2022/04/08 03:19:29;;;;;;;20.55;7.83;;;;;;;5.59;65.55;99328.88;1729694;82;26088;-63
2022/04/08 03:21:56;;;;;;;30.75;8.38;;;;;;;5.56;65.54;99340.32;1729582;82;25709;-63
2022/04/08 03:24:23;;;;;;;23.20;8.43;;;;;;;5.53;65.43;99342.75;1729889;82;28321;-63
2022/04/08 03:26:49;;;;;;;20.23;6.92;;;;;;;5.51;65.88;99342.55;1729514;82;25477;-62
2022/04/08 03:29:16;;;;;;;25.95;6.85;;;;;;;5.37;66.09;99346.45;1729332;82;25788;-62
2022/04/08 03:31:43;;;;;;;25.72;7.15;;;;;;;5.28;65.66;99344.97;1729553;82;26278;-62
2022/04/08 03:34:09;;;;;;;38.53;10.25;;;;;;;5.26;65.56;99351.42;1729872;82;25507;-61
2022/04/08 03:36:36;;;;;;;51.58;11.25;;;;;;;5.24;65.91;99351.57;1729638;82;27409;-61
2022/04/08 03:39:03;;;;;;;51.40;8.15;;;;;;;5.24;65.79;99354.70;1763093;80;25764;-61
2022/04/08 03:41:30;;;;;;;33.63;7.60;;;;;;;5.15;66.03;99341.22;1729699;82;25818;-62
2022/04/08 03:43:57;;;;;;;25.75;8.05;;;;;;;5.08;65.73;99345.89;1729025;82;26101;-62
2022/04/08 03:46:24;;;;;;;29.55;8.63;;;;;;;5.04;65.91;99343.16;1727951;82;25494;-63
2022/04/08 03:48:53;;;;;;;30.90;7.37;;;;;;;5.03;66.03;99346.80;1728302;82;26009;-62
2022/04/08 03:51:20;;;;;;;30.88;7.85;;;;;;;5.04;65.95;99351.16;1729454;82;25787;-62
2022/04/08 03:53:47;;;;;;;31.73;8.13;;;;;;;5.00;65.87;99351.41;1729693;82;25847;-62
2022/04/08 03:56:14;;;;;;;35.10;8.33;;;;;;;5.01;66.08;99360.27;1729633;82;26095;-62
2022/04/08 03:58:41;;;;;;;38.10;8.18;;;;;;;5.05;66.18;99360.84;1728849;82;25791;-62
2022/04/08 04:01:08;;;;;;;39.30;7.35;;;;;;;5.03;65.81;99359.63;1728666;83;27515;-62
2022/04/08 04:03:35;;;;;;;30.43;9.58;;;;;;;4.97;65.68;99360.17;1728529;83;27335;-62
2022/04/08 04:06:03;;;;;;;44.80;9.45;;;;;;;4.94;66.02;99371.09;1728647;83;26008;-62
2022/04/08 04:08:30;;;;;;;34.48;9.03;;;;;;;4.96;66.47;99372.67;1729591;82;26251;-62
2022/04/08 04:10:57;;;;;;;31.25;8.18;;;;;;;4.98;66.38;99370.69;1742609;81;25722;-63
2022/04/08 04:13:23;;;;;;;29.67;9.85;;;;;;;4.95;66.08;99368.31;1742833;82;27369;-62
2022/04/08 04:15:50;;;;;;;44.73;8.68;;;;;;;4.96;65.89;99371.34;1742448;82;25734;-62
2022/04/08 04:18:17;;;;;;;31.93;7.95;;;;;;;4.96;65.79;99376.67;1742285;82;25749;-61
2022/04/08 04:20:44;;;;;;;35.78;8.48;;;;;;;4.94;65.90;99383.08;1742485;81;26204;-62
2022/04/08 04:23:11;;;;;;;38.90;10.00;;;;;;;4.95;66.34;99383.44;1742534;82;25628;-61
2022/04/08 04:25:38;;;;;;;48.30;9.30;;;;;;;5.01;66.76;99388.26;1742599;81;27485;-61
2022/04/08 04:28:05;;;;;;;31.20;8.98;;;;;;;5.10;67.53;99398.58;1742305;82;25824;-61
2022/04/08 04:30:33;;;;;;;27.87;6.95;;;;;;;5.20;67.31;99388.80;1742618;81;25793;-62
2022/04/08 04:33:00;;;;;;;25.77;7.08;;;;;;;5.27;66.89;99379.27;1742810;82;26898;-61
2022/04/08 04:35:28;;;;;;;33.23;7.22;;;;;;;5.29;66.71;99391.16;1742447;82;25701;-61
2022/04/08 04:37:55;;;;;;;26.77;8.05;;;;;;;5.37;67.36;99391.79;1742361;82;27503;-61
2022/04/08 04:40:21;;;;;;;28.83;7.45;;;;;;;5.46;67.13;99397.64;1742779;82;25759;-61
2022/04/08 04:42:48;;;;;;;22.42;6.50;;;;;;;5.53;67.05;99395.27;1742584;82;25816;-62
2022/04/08 04:45:15;;;;;;;47.45;8.73;;;;;;;5.57;67.14;99409.53;1730614;82;26105;-62
2022/04/08 04:47:42;;;;;;;20.68;7.12;;;;;;;5.64;67.01;99403.98;1729606;82;27290;-62
2022/04/08 04:50:10;;;;;;;29.25;7.87;;;;;;;5.72;66.87;99406.45;1729627;82;27454;-62
2022/04/08 04:52:37;;;;;;;35.58;9.93;;;;;;;5.82;66.82;99409.15;1691800;83;25738;-62
2022/04/08 04:55:06;;;;;;;29.40;7.70;;;;;;;5.90;67.01;99418.64;1686410;84;25535;-62
2022/04/08 04:57:34;;;;;;;38.10;9.70;;;;;;;5.95;66.95;99420.38;1717845;83;26730;-62
2022/04/08 05:00:06;;;;;;;31.93;8.35;;;;;;;6.03;66.94;99426.41;1662220;85;25829;-62
2022/04/08 05:02:34;;;;;;;32.95;9.05;;;;;;;6.11;66.82;99426.54;1688238;84;27601;-63
2022/04/08 05:05:01;;;;;;;78.75;22.42;;;;;;;6.17;66.56;99416.63;1687775;84;25807;-62
2022/04/08 05:07:28;;;;;;;81.95;21.48;;;;;;;6.23;66.34;99424.56;1682109;85;25507;-62
2022/04/08 05:09:54;;;;;;;94.05;28.55;;;;;;;6.27;66.06;99440.67;1686701;84;26038;-62
2022/04/08 05:12:21;;;;;;;94.83;24.57;;;;;;;6.29;66.07;99430.66;1686620;84;25809;-63
2022/04/08 05:14:48;;;;;;;108.17;34.25;;;;;;;6.32;65.87;99431.73;1686509;85;27464;-63
2022/04/08 05:17:14;;;;;;;119.05;37.65;;;;;;;6.36;66.11;99427.80;1686332;84;25693;-62
2022/04/08 05:19:41;;;;;;;99.52;30.10;;;;;;;6.38;66.07;99421.80;1686311;84;25855;-62
2022/04/08 05:22:09;;;;;;;81.42;25.85;;;;;;;6.44;66.04;99433.75;1686386;84;26011;-63
2022/04/08 05:24:36;;;;;;;77.12;23.20;;;;;;;6.48;66.13;99431.16;1686694;84;25920;-63
2022/04/08 05:27:05;;;;;;;64.80;20.85;;;;;;;6.51;66.06;99430.85;1686315;85;27495;-63
2022/04/08 05:29:33;;;;;;;68.22;20.05;;;;;;;6.55;65.87;99432.27;1686680;84;25733;-65
2022/04/08 05:32:00;;;;;;;63.78;18.05;;;;;;;6.58;65.68;99430.66;1661339;85;25855;-64
2022/04/08 05:34:27;;;;;;;60.45;18.52;;;;;;;6.63;65.75;99429.36;1686467;84;26019;-62
2022/04/08 05:36:54;;;;;;;57.17;19.37;;;;;;;6.69;65.81;99426.10;1686499;85;26095;-62
2022/04/08 05:39:21;;;;;;;60.08;19.92;;;;;;;6.75;65.63;99437.58;1686407;84;27441;-64
2022/04/08 05:41:48;;;;;;;52.05;13.83;;;;;;;6.81;65.85;99442.33;1686330;84;25709;-64
2022/04/08 05:44:15;;;;;;;48.00;16.67;;;;;;;6.88;65.87;99435.41;1686551;84;25805;-64
2022/04/08 05:46:43;;;;;;;53.23;15.28;;;;;;;6.96;65.92;99437.84;1659275;84;26127;-63
2022/04/08 05:49:10;;;;;;;50.10;10.63;;;;;;;7.10;66.28;99435.20;1690215;84;25859;-62
2022/04/08 05:51:37;;;;;;;39.42;11.00;;;;;;;7.21;66.40;99431.00;1691601;83;27401;-62
2022/04/08 05:54:04;;;;;;;31.30;10.55;;;;;;;7.35;66.28;99431.84;1696768;83;25956;-62
2022/04/08 05:56:31;;;;;;;36.23;10.65;;;;;;;7.50;66.48;99434.04;1699392;82;25562;-62
2022/04/08 05:58:58;;;;;;;41.05;8.93;;;;;;;7.65;66.34;99433.05;1695204;84;26797;-62
2022/04/08 06:01:25;;;;;;;45.10;9.98;;;;;;;7.81;66.26;99451.95;1693247;84;27265;-61
2022/04/08 06:03:51;;;;;;;36.88;7.72;;;;;;;7.98;65.86;99450.78;1693577;84;27632;-62
2022/04/08 06:06:18;;;;;;;32.55;8.88;;;;;;;8.18;65.59;99441.27;1693211;84;25826;-61
2022/04/08 06:08:45;;;;;;;31.12;9.03;;;;;;;8.38;65.55;99432.05;1693424;84;25801;-61
2022/04/08 06:11:11;;;;;;;28.73;7.15;;;;;;;8.61;64.83;99440.47;1693356;84;26134;-61
2022/04/08 06:13:38;;;;;;;29.30;8.45;;;;;;;8.82;64.19;99437.11;1693448;84;25693;-62
2022/04/08 06:16:05;;;;;;;42.65;9.55;;;;;;;8.98;63.51;99433.18;1693249;84;27495;-62
2022/04/08 06:18:33;;;;;;;22.37;7.42;;;;;;;9.10;62.59;99443.13;1693353;84;25964;-61
2022/04/08 06:21:01;;;;;;;35.38;8.65;;;;;;;9.21;61.89;99437.98;1693355;84;25740;-61
2022/04/08 06:23:28;;;;;;;39.30;8.83;;;;;;;9.30;61.56;99433.51;1693418;84;26166;-61
2022/04/08 06:25:55;;;;;;;36.85;9.78;;;;;;;9.37;61.60;99433.20;1693474;84;25738;-61
2022/04/08 06:28:21;;;;;;;34.92;9.28;;;;;;;9.46;61.57;99426.03;1693318;84;28377;-62
2022/04/08 06:30:48;;;;;;;40.55;9.70;;;;;;;9.53;61.47;99427.06;1693201;84;25483;-61
2022/04/08 06:33:16;;;;;;;25.97;9.33;;;;;;;9.60;61.20;99437.48;1694617;84;26404;-60
2022/04/08 06:35:43;;;;;;;35.13;11.12;;;;;;;9.67;60.80;99438.50;1669559;85;27511;-63
2022/04/08 06:38:10;;;;;;;33.67;9.83;;;;;;;9.75;60.67;99451.13;1718474;82;25676;-61
2022/04/08 06:40:38;;;;;;;27.27;9.75;;;;;;;9.81;60.29;99453.15;1728085;83;27475;-62
2022/04/08 06:43:06;;;;;;;29.30;10.40;;;;;;;9.90;60.06;99446.45;1727971;82;25699;-61
2022/04/08 06:45:34;;;;;;;30.92;10.88;;;;;;;9.95;59.97;99459.73;1726600;82;25816;-61
2022/04/08 06:48:01;;;;;;;37.40;11.75;;;;;;;10.00;59.95;99465.95;1729775;82;26253;-62
2022/04/08 06:50:33;;;;;;;36.00;11.03;;;;;;;10.09;59.66;99469.48;1729477;82;25527;-61
2022/04/08 06:53:00;;;;;;;38.50;11.12;;;;;;;10.19;59.14;99475.55;1729502;82;27485;-61
2022/04/08 06:55:29;;;;;;;39.80;11.28;;;;;;;10.28;58.91;99481.27;1727828;82;25806;-61
2022/04/08 06:58:02;;;;;;;26.48;9.70;;;;;;;10.34;59.16;99495.42;1728366;82;25876;-62
2022/04/08 07:00:32;;;;;;;37.40;12.20;;;;;;;10.45;58.92;99496.11;1729819;82;26149;-63
2022/04/08 07:02:59;;;;;;;54.08;13.15;;;;;;;10.57;58.68;99497.98;1728633;82;25652;-62
2022/04/08 07:05:28;;;;;;;28.02;10.43;;;;;;;10.70;58.21;99495.62;1728168;83;27503;-62
2022/04/08 07:07:55;;;;;;;27.17;9.20;;;;;;;10.83;58.24;99491.59;1728236;83;25802;-62
2022/04/08 07:10:22;;;;;;;28.05;8.45;;;;;;;10.93;57.29;99485.02;1728193;83;25778;-62
2022/04/08 07:12:49;;;;;;;30.25;8.25;;;;;;;11.06;56.72;99491.21;1728154;82;27095;-62
2022/04/08 07:15:16;;;;;;;22.13;8.70;;;;;;;11.18;56.64;99493.03;1728098;83;25738;-62
2022/04/08 07:17:43;;;;;;;28.42;8.83;;;;;;;11.30;56.38;99496.72;1728206;83;27577;-62
2022/04/08 07:20:13;;;;;;;18.85;7.50;;;;;;;11.43;56.13;99500.55;1728030;82;25834;-62
2022/04/08 07:22:39;;;;;;;24.95;8.30;;;;;;;11.57;56.13;99502.17;1728835;82;25834;-63
2022/04/08 07:25:08;;;;;;;18.70;8.23;;;;;;;11.71;55.64;99504.64;1729788;82;26763;-62
2022/04/08 07:27:47;;;;;;;22.07;9.53;;;;;;;11.83;55.49;99504.61;1729726;82;25837;-63
2022/04/08 07:30:17;;;;;;;24.98;7.17;;;;;;;11.99;55.09;99506.91;1726187;81;27733;-63
2022/04/08 07:32:50;;;;;;;23.73;7.78;;;;;;;12.17;54.22;99520.13;1729235;82;25914;-60
2022/04/08 07:35:17;;;;;;;19.85;8.03;;;;;;;12.36;53.96;99512.08;1729957;82;25860;-64
2022/04/08 07:37:44;;;;;;;19.92;8.00;;;;;;;12.59;53.56;99515.31;1729565;82;26175;-64
2022/04/08 07:40:13;;;;;;;27.25;8.73;;;;;;;12.81;52.74;99518.48;1729690;82;25728;-63
2022/04/08 07:42:40;;;;;;;25.32;7.95;;;;;;;13.02;52.59;99526.42;1729751;82;27567;-62
2022/04/08 07:45:09;;;;;;;25.37;7.30;;;;;;;13.28;50.64;99513.00;1729230;82;25671;-62
2022/04/08 07:47:36;;;;;;;20.62;8.90;;;;;;;13.50;50.64;99509.06;1729771;82;25486;-66
2022/04/08 07:50:10;;;;;;;29.67;9.18;;;;;;;13.69;50.22;99509.03;1729574;82;26108;-65
2022/04/08 07:52:39;;;;;;;16.50;7.47;;;;;;;13.93;49.89;99522.23;1704816;83;25562;-61
2022/04/08 07:55:08;;;;;;;18.85;7.83;;;;;;;14.16;49.54;99510.45;1699226;82;27474;-62
2022/04/08 07:57:47;;;;;;;24.67;7.45;;;;;;;14.32;49.47;99503.12;1702678;82;25909;-64
2022/04/08 08:00:19;;;;;;;18.37;7.20;;;;;;;14.51;49.60;99511.11;1710612;83;25474;-63
2022/04/08 08:02:48;;;;;;;23.05;8.85;;;;;;;14.68;49.00;99503.08;1710615;82;26260;-63
2022/04/08 08:05:16;;;;;;;25.82;7.85;;;;;;;14.87;48.45;99491.27;1715321;83;25989;-63
2022/04/08 08:07:57;;;;;;;20.97;7.65;;;;;;;15.03;47.49;99490.15;1717846;83;27525;-63
2022/04/08 08:10:30;;;;;;;16.35;6.97;;;;;;;15.15;46.88;99483.13;1717064;83;25794;-64
2022/04/08 08:13:02;;;;;;;20.02;7.47;;;;;;;15.25;46.49;99492.28;1717786;83;25850;-63
2022/04/08 08:15:32;;;;;;;13.75;6.95;;;;;;;15.38;45.08;99498.80;1717739;83;26105;-67
2022/04/08 08:18:00;;;;;;;14.38;6.33;;;;;;;15.45;45.67;99502.41;1718055;83;26235;-61
2022/04/08 08:20:27;;;;;;;20.43;6.22;;;;;;;15.60;46.19;99501.77;1717609;83;27803;-62
2022/04/08 08:22:54;;;;;;;18.57;7.28;;;;;;;15.77;45.63;99502.77;1717694;83;25837;-62
2022/04/08 08:25:21;;;;;;;15.43;6.35;;;;;;;15.91;44.55;99513.20;1718588;83;25969;-61
2022/04/08 08:27:55;;;;;;;16.05;6.35;;;;;;;16.02;44.06;99506.34;1719171;82;26131;-62
2022/04/08 08:30:22;;;;;;;12.73;5.92;;;;;;;16.14;43.30;99511.52;1719556;83;25813;-62
2022/04/08 08:32:50;;;;;;;14.58;5.83;;;;;;;16.27;42.85;99505.28;1719319;83;27891;-62
2022/04/08 08:35:19;;;;;;;16.48;6.60;;;;;;;16.42;43.21;99513.27;1718421;82;25748;-62
2022/04/08 08:37:49;;;;;;;14.95;6.50;;;;;;;16.53;42.13;99500.95;1718667;82;25762;-63
2022/04/08 08:40:18;;;;;;;14.35;5.47;;;;;;;16.59;41.76;99491.47;1719558;82;26646;-62
2022/04/08 08:42:46;;;;;;;17.40;6.25;;;;;;;16.75;41.51;99497.53;1719409;82;25715;-61
2022/04/08 08:45:15;;;;;;;11.80;5.85;;;;;;;16.92;42.31;99501.19;1720709;82;27430;-62
2022/04/08 08:47:48;;;;;;;14.10;5.62;;;;;;;17.15;40.33;99499.43;1718789;83;25805;-62
2022/04/08 08:50:17;;;;;;;15.15;6.12;;;;;;;17.29;40.43;99492.09;1697598;83;25859;-62
2022/04/08 08:52:54;;;;;;;15.55;5.03;;;;;;;17.49;39.99;99482.02;1682108;85;26820;-62
2022/04/08 08:55:20;;;;;;;14.95;4.62;;;;;;;17.77;39.60;99489.55;1689848;83;25785;-62
2022/04/08 08:57:49;;;;;;;14.03;4.00;;;;;;;18.09;37.15;99502.73;1701919;83;27196;-64
2022/04/08 09:00:19;;;;;;;53.58;38.20;;;;;;;18.19;36.57;99487.83;1710389;83;25820;-62
2022/04/08 09:02:48;;;;;;;14.90;4.85;;;;;;;18.31;37.20;99479.29;1710675;83;25846;-62
2022/04/08 09:05:21;;;;;;;12.30;4.58;;;;;;;18.43;37.06;99483.50;1710795;83;26928;-63
2022/04/08 09:07:57;;;;;;;7.50;3.70;;;;;;;18.51;35.48;99500.11;1710947;83;31024;-62
2022/04/08 09:10:34;;;;;;;7.05;3.47;;;;;;;18.64;36.23;99485.56;1710742;83;29608;-62
2022/04/08 09:13:04;;;;;;;14.40;3.67;;;;;;;18.92;36.43;99485.13;1710714;83;25525;-63
2022/04/08 09:15:34;;;;;;;10.35;3.50;;;;;;;19.27;34.75;99494.70;1711712;83;25784;-62
2022/04/08 09:18:13;;;;;;;6.58;3.85;;;;;;;19.54;33.82;99493.34;1710732;83;25844;-63
2022/04/08 09:20:45;;;;;;;11.50;3.83;;;;;;;19.66;34.27;99491.23;1711117;83;25727;-62
2022/04/08 09:23:15;;;;;;;7.63;3.90;;;;;;;19.84;34.54;99491.22;1710967;83;28313;-62
2022/04/08 09:25:42;;;;;;;11.80;3.72;;;;;;;20.20;34.27;99494.17;1712311;83;25819;-62
2022/04/08 09:28:18;;;;;;;6.53;3.20;;;;;;;20.48;33.73;99488.63;1691912;84;25504;-62
2022/04/08 09:30:49;;;;;;;9.75;4.50;;;;;;;21.08;34.05;99492.31;1696603;83;26862;-63
2022/04/08 09:33:23;;;;;;;8.65;4.28;;;;;;;21.87;31.38;99499.30;1689655;84;25797;-63
2022/04/08 09:35:55;;;;;;;15.50;4.90;;;;;;;22.55;30.80;99496.77;1694915;84;33988;-62
2022/04/08 09:38:26;;;;;;;13.83;4.75;;;;;;;23.39;30.28;99489.63;1695179;84;25799;-62
2022/04/08 09:41:08;;;;;;;11.57;4.78;;;;;;;24.17;29.50;99494.73;1666400;86;25647;-62
2022/04/08 09:43:38;;;;;;;12.30;4.72;;;;;;;24.51;27.07;99505.56;1696582;84;26298;-63
2022/04/08 09:46:17;;;;;;;11.73;5.83;;;;;;;25.13;27.66;99506.11;1712356;83;25715;-63
2022/04/08 09:48:46;;;;;;;7.20;4.10;;;;;;;25.86;28.29;99502.72;1711428;83;27493;-63
2022/04/08 09:51:23;;;;;;;11.68;4.25;;;;;;;26.52;25.46;99500.44;1681394;83;25765;-63
2022/04/08 09:54:00;;;;;;;5.75;3.20;;;;;;;26.71;24.76;99499.34;1680676;84;25769;-62
2022/04/08 09:56:29;;;;;;;10.63;4.37;;;;;;;27.00;24.72;99496.89;1673454;84;26045;-62
2022/04/08 09:59:10;;;;;;;8.83;4.67;;;;;;;27.48;23.69;99499.32;1679498;84;26211;-63
2022/04/08 10:01:39;;;;;;;7.62;4.45;;;;;;;27.28;23.50;99500.73;1691405;84;27498;-65
2022/04/08 10:04:08;;;;;;;9.70;4.20;;;;;;;27.74;23.78;99497.05;1691478;84;25744;-65
2022/04/08 10:06:37;;;;;;;6.55;4.08;;;;;;;28.00;23.14;99495.02;1691667;84;25836;-65
2022/04/08 10:09:07;;;;;;;8.18;3.58;;;;;;;28.41;23.20;99497.56;1691748;83;26100;-63
2022/04/08 10:12:01;;;;;;;14.68;4.65;;;;;;;28.62;22.37;99488.28;1691564;84;25814;-64
2022/04/08 10:15:06;;;;;;;8.35;3.80;;;;;;;29.00;21.74;99496.30;1692159;84;27519;-65
2022/04/08 10:17:33;;;;;;;7.35;3.37;;;;;;;29.47;21.01;99502.25;1691501;84;25899;-64
2022/04/08 10:20:20;;;;;;;62.67;5.03;;;;;;;29.77;21.60;99495.27;1693206;84;25787;-64
2022/04/08 10:22:48;;;;;;;6.17;2.85;;;;;;;30.11;21.63;99493.75;1693280;84;26928;-65
2022/04/08 10:25:18;;;;;;;13.78;2.80;;;;;;;30.49;19.47;99483.21;1693553;84;25817;-65
2022/04/08 10:27:45;;;;;;;11.55;2.90;;;;;;;30.21;18.11;99479.48;1693051;83;27417;-65
2022/04/08 10:30:21;;;;;;;13.30;2.92;;;;;;;29.82;18.77;99487.71;1691781;84;25810;-64
2022/04/08 10:32:59;;;;;;;6.60;2.50;;;;;;;29.60;19.23;99498.50;1691253;84;25938;-65
2022/04/08 10:35:27;;;;;;;12.00;2.58;;;;;;;29.34;19.09;99494.08;1691780;84;26098;-64
2022/04/08 10:38:01;;;;;;;10.50;3.00;;;;;;;29.90;18.73;99502.03;1692041;84;25780;-64
2022/04/08 10:40:34;;;;;;;11.63;2.35;;;;;;;30.28;18.19;99497.37;1692687;84;27741;-65
2022/04/08 10:43:08;;;;;;;4.65;2.35;;;;;;;30.65;18.30;99486.61;1692920;83;25815;-64
2022/04/08 10:45:37;;;;;;;6.87;1.87;;;;;;;30.81;17.75;99494.09;1722277;82;25720;-64
2022/04/08 10:48:13;;;;;;;14.73;2.27;;;;;;;30.07;18.22;99496.03;1722015;82;28295;-64
2022/04/08 10:50:41;;;;;;;5.25;2.33;;;;;;;29.45;18.18;99503.10;1696663;83;25666;-64
2022/04/08 10:53:16;;;;;;;8.18;2.60;;;;;;;28.42;18.94;99501.98;1666834;83;27699;-63
2022/04/08 10:55:54;;;;;;;15.05;2.58;;;;;;;27.71;19.86;99498.44;1681675;84;26084;-64
2022/04/08 10:58:35;;;;;;;21.73;3.08;;;;;;;27.68;19.62;99493.47;1713297;83;25873;-64
2022/04/08 11:01:27;;;;;;;6.30;2.60;;;;;;;28.09;19.60;99496.64;1662337;84;26053;-64
2022/04/08 11:04:00;;;;;;;6.92;2.35;;;;;;;28.34;18.93;99479.09;1683712;85;25748;-65
2022/04/08 11:06:36;;;;;;;12.47;3.05;;;;;;;28.46;18.90;99488.41;1683748;84;27348;-63
2022/04/08 11:09:09;;;;;;;12.58;2.75;;;;;;;28.38;18.60;99480.14;1683605;85;25646;-63
2022/04/08 11:11:41;;;;;;;9.93;2.62;;;;;;;28.54;18.91;99494.70;1683512;83;25468;-64
2022/04/08 11:14:10;;;;;;;6.35;2.80;;;;;;;29.04;18.46;99492.41;1692941;84;26092;-64
2022/04/08 11:16:39;;;;;;;6.25;3.00;;;;;;;29.35;18.40;99484.66;1693165;84;25688;-64
2022/04/08 11:19:09;;;;;;;15.95;3.22;;;;;;;29.67;18.13;99494.84;1651606;85;27483;-64
2022/04/08 11:21:37;;;;;;;10.48;3.02;;;;;;;29.83;17.42;99503.77;1651790;85;26458;-64
2022/04/08 11:24:16;;;;;;;17.40;2.67;;;;;;;29.58;17.42;99496.61;1666337;86;25742;-65
2022/04/08 11:26:48;;;;;;;7.72;2.75;;;;;;;29.48;17.73;99494.75;1668203;86;26772;-66
2022/04/08 11:29:19;;;;;;;8.28;2.52;;;;;;;29.81;18.20;99491.60;1671586;84;25756;-63
2022/04/08 11:31:49;;;;;;;10.35;2.58;;;;;;;30.06;17.28;99496.58;1680233;84;27653;-63
2022/04/08 11:34:17;;;;;;;6.75;2.30;;;;;;;30.09;17.15;99495.98;1668381;85;25877;-64
2022/04/08 11:36:45;;;;;;;9.10;2.20;;;;;;;30.37;17.04;99513.34;1697844;83;25721;-68
2022/04/08 11:39:23;;;;;;;5.33;1.80;;;;;;;30.66;17.08;99514.59;1675666;84;26694;-66
2022/04/08 11:41:53;;;;;;;8.80;2.27;;;;;;;30.36;16.74;99507.53;1697584;84;25829;-65